Time;durP1;ratioP1;P1;durP2;ratioP2;P2;SDS_P1;SDS_P2;PMS_P1;PMS_P2;Temp;Humidity;BMP_temperature;BMP_pressure;BME280_temperature;BME280_humidity;BME280_pressure;Samples;Min_cycle;Max_cycle;Signal;HPM_P1;HPM_P2
2021/11/26 00:01:02;;;;;;;1.85;0.50;;;25.30;34.00;;;;;;4945649;29;20678;-51
2021/11/26 00:03:33;;;;;;;3.45;0.73;;;25.30;34.10;;;;;;4944820;28;20203;-51
2021/11/26 00:06:07;;;;;;;0.73;0.40;;;25.30;34.10;;;;;;4941786;29;20230;-46
2021/11/26 00:08:38;;;;;;;1.73;0.65;;;25.40;34.30;;;;;;4943669;28;20289;-46
2021/11/26 00:11:12;;;;;;;0.73;0.30;;;25.30;34.20;;;;;;4943900;28;20215;-51
2021/11/26 00:13:46;;;;;;;1.10;0.45;;;25.40;34.20;;;;;;4943558;28;20235;-54
2021/11/26 00:16:20;;;;;;;2.30;0.52;;;25.40;34.00;;;;;;4945541;29;20214;-48
2021/11/26 00:18:57;;;;;;;0.93;0.55;;;25.40;33.90;;;;;;4944877;29;20233;-51
2021/11/26 00:21:29;;;;;;;1.02;0.35;;;25.40;34.20;;;;;;4944813;28;20270;-53
2021/11/26 00:24:03;;;;;;;1.27;0.50;;;25.40;34.20;;;;;;4940700;29;20258;-50
2021/11/26 00:26:36;;;;;;;2.88;0.40;;;25.40;34.20;;;;;;4945370;28;20254;-46
2021/11/26 00:29:07;;;;;;;1.38;0.55;;;25.50;34.10;;;;;;4943366;29;20211;-46
2021/11/26 00:31:38;;;;;;;3.88;0.60;;;25.50;33.80;;;;;;4949123;28;20207;-51
2021/11/26 00:34:09;;;;;;;0.93;0.30;;;25.50;33.70;;;;;;4950308;28;20648;-46
2021/11/26 00:36:41;;;;;;;2.78;0.40;;;25.50;33.20;;;;;;4946874;29;20236;-48
2021/11/26 00:39:15;;;;;;;1.48;0.30;;;25.50;33.00;;;;;;4948393;28;20207;-48
2021/11/26 00:41:53;;;;;;;0.63;0.30;;;25.50;33.00;;;;;;4947129;28;20198;-48
2021/11/26 00:44:24;;;;;;;1.70;0.70;;;25.50;32.80;;;;;;4942630;29;20690;-47
2021/11/26 00:46:54;;;;;;;1.60;0.50;;;25.50;32.70;;;;;;4947901;28;20227;-49
2021/11/26 00:49:26;;;;;;;0.50;0.35;;;25.50;32.30;;;;;;4949095;28;20209;-47
2021/11/26 00:51:58;;;;;;;2.92;0.38;;;25.40;32.10;;;;;;4948068;29;20203;-49
2021/11/26 00:54:29;;;;;;;2.38;0.40;;;25.40;31.80;;;;;;4945063;29;20213;-49
2021/11/26 00:57:07;;;;;;;1.45;0.30;;;25.50;31.90;;;;;;4944183;28;20203;-47
2021/11/26 00:59:38;;;;;;;1.45;0.55;;;25.40;31.50;;;;;;4945691;28;20705;-49
2021/11/26 01:02:10;;;;;;;1.35;0.43;;;25.40;31.60;;;;;;4947271;28;20202;-46
2021/11/26 01:04:40;;;;;;;1.38;0.30;;;25.40;31.70;;;;;;4946929;28;20211;-46
2021/11/26 01:07:11;;;;;;;0.25;0.20;;;25.40;31.60;;;;;;4948991;28;20241;-47
2021/11/26 01:09:45;;;;;;;2.55;0.35;;;25.40;31.60;;;;;;4949626;29;20990;-48
2021/11/26 01:12:18;;;;;;;0.50;0.10;;;25.40;31.80;;;;;;4948993;28;20202;-48
2021/11/26 01:14:50;;;;;;;1.55;0.50;;;25.40;31.80;;;;;;4946536;28;20229;-49
2021/11/26 01:17:24;;;;;;;2.25;0.55;;;25.40;31.80;;;;;;4946518;28;20203;-46
2021/11/26 01:19:58;;;;;;;1.67;0.60;;;25.40;31.90;;;;;;4936534;28;20227;-51
2021/11/26 01:22:30;;;;;;;0.50;0.30;;;25.40;32.20;;;;;;4933196;29;20199;-46
2021/11/26 01:25:04;;;;;;;3.30;0.70;;;25.40;32.30;;;;;;4932563;29;20241;-49
2021/11/26 01:27:37;;;;;;;1.70;0.40;;;25.50;32.40;;;;;;4933664;29;20234;-48
2021/11/26 01:30:14;;;;;;;1.38;0.50;;;25.50;32.70;;;;;;4933010;29;20203;-49
2021/11/26 01:32:45;;;;;;;1.48;0.55;;;25.50;32.80;;;;;;4932051;29;20239;-47
2021/11/26 01:35:16;;;;;;;1.08;0.40;;;25.50;32.90;;;;;;4931614;29;20223;-49
2021/11/26 01:37:47;;;;;;;1.08;0.40;;;25.50;33.00;;;;;;4930673;29;20199;-48
2021/11/26 01:40:19;;;;;;;2.20;0.47;;;25.50;33.30;;;;;;4932712;29;20561;-50
2021/11/26 01:42:54;;;;;;;0.85;0.40;;;25.60;33.50;;;;;;4931427;29;20202;-50
2021/11/26 01:45:27;;;;;;;1.88;0.40;;;25.60;33.70;;;;;;4932359;29;20229;-52
2021/11/26 01:47:58;;;;;;;1.90;0.43;;;25.70;33.90;;;;;;4932117;29;20316;-48
2021/11/26 01:50:29;;;;;;;0.60;0.30;;;25.70;33.90;;;;;;4931443;29;20262;-51
2021/11/26 01:53:00;;;;;;;0.75;0.30;;;25.70;34.00;;;;;;4923444;29;20205;-50
2021/11/26 01:55:34;;;;;;;0.60;0.50;;;25.80;34.10;;;;;;4924154;29;20223;-51
2021/11/26 01:58:10;;;;;;;1.77;0.40;;;25.80;34.10;;;;;;4931489;29;20215;-52
2021/11/26 02:00:42;;;;;;;0.80;0.50;;;25.80;34.20;;;;;;4931573;29;20258;-48
2021/11/26 02:03:13;;;;;;;1.70;0.50;;;25.90;34.30;;;;;;4932290;29;20203;-50
2021/11/26 02:05:45;;;;;;;0.50;0.30;;;25.90;35.00;;;;;;4933278;29;20216;-50
2021/11/26 02:08:16;;;;;;;1.63;0.55;;;26.00;34.50;;;;;;4932263;29;20259;-48
2021/11/26 02:10:48;;;;;;;2.22;0.50;;;26.00;34.50;;;;;;4931678;29;20239;-48
2021/11/26 02:13:23;;;;;;;1.23;0.50;;;26.10;34.60;;;;;;4930452;29;20211;-47
2021/11/26 02:15:55;;;;;;;1.35;0.52;;;26.10;34.50;;;;;;4930834;29;20215;-51
2021/11/26 02:18:26;;;;;;;1.27;0.55;;;26.20;34.60;;;;;;4931467;29;20230;-47
2021/11/26 02:20:59;;;;;;;2.03;0.60;;;26.20;34.70;;;;;;4931861;29;20208;-48
2021/11/26 02:23:30;;;;;;;4.18;0.60;;;26.20;34.70;;;;;;4932120;29;20206;-48
2021/11/26 02:26:00;;;;;;;1.10;0.60;;;26.30;35.00;;;;;;4931852;29;20235;-47
2021/11/26 02:28:31;;;;;;;1.30;0.60;;;26.30;35.10;;;;;;4923597;29;20235;-46
2021/11/26 02:31:08;;;;;;;1.55;0.63;;;26.40;35.30;;;;;;4924166;29;20202;-49
2021/11/26 02:33:39;;;;;;;2.10;0.60;;;26.40;35.20;;;;;;4930350;29;20203;-48
2021/11/26 02:36:11;;;;;;;1.38;0.70;;;26.50;35.20;;;;;;4918873;29;20220;-49
2021/11/26 02:38:46;;;;;;;0.98;0.60;;;26.50;35.20;;;;;;4932599;29;20659;-48
2021/11/26 02:41:17;;;;;;;2.13;0.60;;;26.50;35.30;;;;;;4931353;29;20542;-48
2021/11/26 02:43:48;;;;;;;2.30;0.80;;;26.60;35.30;;;;;;4931044;29;20206;-50
2021/11/26 02:46:21;;;;;;;2.28;0.88;;;26.60;35.30;;;;;;4932266;29;20231;-47
2021/11/26 02:48:52;;;;;;;1.85;0.70;;;26.70;35.30;;;;;;4926085;29;20209;-49
2021/11/26 02:51:25;;;;;;;2.53;0.80;;;26.70;35.40;;;;;;4931185;29;20200;-47
2021/11/26 02:53:55;;;;;;;2.75;0.70;;;26.80;35.50;;;;;;4931007;29;20687;-50
2021/11/26 02:56:26;;;;;;;1.83;0.80;;;26.80;35.50;;;;;;4931736;29;20332;-48
2021/11/26 02:58:58;;;;;;;3.72;0.80;;;26.80;35.30;;;;;;4943295;29;20202;-48
2021/11/26 03:01:31;;;;;;;3.13;0.90;;;26.90;35.30;;;;;;4919036;29;20292;-46
2021/11/26 03:04:02;;;;;;;1.30;0.90;;;26.90;35.40;;;;;;4926062;29;20287;-47
2021/11/26 03:06:38;;;;;;;1.60;0.80;;;27.00;35.40;;;;;;4930839;29;20255;-49
2021/11/26 03:09:09;;;;;;;2.00;1.00;;;27.00;35.50;;;;;;4929901;29;20298;-47
2021/11/26 03:11:40;;;;;;;2.38;0.70;;;27.00;35.60;;;;;;4917356;29;20279;-50
2021/11/26 03:14:11;;;;;;;2.78;0.90;;;27.10;35.60;;;;;;4915234;29;20240;-49
2021/11/26 03:16:42;;;;;;;1.05;0.70;;;27.10;35.60;;;;;;4929608;29;20630;-49
2021/11/26 03:19:13;;;;;;;1.55;0.70;;;27.10;35.60;;;;;;4923529;29;20208;-47
2021/11/26 03:21:45;;;;;;;2.35;0.77;;;27.20;35.70;;;;;;4930786;29;20676;-50
2021/11/26 03:24:16;;;;;;;3.17;0.90;;;27.20;35.70;;;;;;4930118;29;20227;-48
2021/11/26 03:26:48;;;;;;;2.55;0.80;;;27.30;35.80;;;;;;4930846;29;20226;-52
2021/11/26 03:29:19;;;;;;;1.98;0.90;;;27.30;35.80;;;;;;4914686;29;20212;-47
2021/11/26 03:31:50;;;;;;;2.20;0.93;;;27.30;35.70;;;;;;4931163;29;20231;-45
2021/11/26 03:34:21;;;;;;;2.63;1.08;;;27.40;35.70;;;;;;4930183;29;20199;-47
2021/11/26 03:36:54;;;;;;;1.95;0.80;;;27.40;35.70;;;;;;4922008;29;20224;-48
2021/11/26 03:39:25;;;;;;;1.88;0.90;;;27.50;35.80;;;;;;4919349;29;20240;-48
2021/11/26 03:41:59;;;;;;;1.58;0.82;;;27.50;35.80;;;;;;4920916;29;20600;-47
2021/11/26 03:44:30;;;;;;;2.85;1.05;;;27.50;35.80;;;;;;4930109;29;20203;-49
2021/11/26 03:47:01;;;;;;;1.98;0.88;;;27.50;35.80;;;;;;4932155;29;20215;-48
2021/11/26 03:49:31;;;;;;;2.60;0.95;;;27.60;35.80;;;;;;4930784;29;20893;-48
2021/11/26 03:52:06;;;;;;;2.92;1.08;;;27.60;35.70;;;;;;4929941;29;20290;-47
2021/11/26 03:54:38;;;;;;;2.88;0.90;;;27.60;35.60;;;;;;4929948;29;20199;-47
2021/11/26 03:57:09;;;;;;;2.97;1.10;;;27.70;35.60;;;;;;4925052;29;20212;-46
2021/11/26 03:59:40;;;;;;;4.90;1.10;;;27.70;35.60;;;;;;4927741;29;20208;-48
2021/11/26 04:02:11;;;;;;;2.13;1.17;;;27.70;35.50;;;;;;4930179;29;20202;-47
2021/11/26 04:04:42;;;;;;;2.55;1.00;;;27.80;35.60;;;;;;4917796;29;20206;-49
2021/11/26 04:07:15;;;;;;;4.07;1.20;;;27.80;35.50;;;;;;4916787;29;20227;-47
2021/11/26 04:09:45;;;;;;;3.08;1.20;;;27.80;35.50;;;;;;4918855;29;20200;-48
2021/11/26 04:12:16;;;;;;;4.30;1.08;;;27.80;35.50;;;;;;4919064;29;20204;-48
2021/11/26 04:14:53;;;;;;;2.13;0.95;;;27.90;35.60;;;;;;4920504;29;20211;-48
2021/11/26 04:17:27;;;;;;;4.55;1.20;;;27.90;35.70;;;;;;4930354;29;20204;-46
2021/11/26 04:19:58;;;;;;;4.22;0.95;;;27.90;35.70;;;;;;4930933;29;20206;-48
2021/11/26 04:22:31;;;;;;;2.60;0.90;;;27.90;35.70;;;;;;4929441;29;20200;-52
2021/11/26 04:25:01;;;;;;;3.45;1.02;;;27.90;35.80;;;;;;4929478;29;20321;-48
2021/11/26 04:27:32;;;;;;;2.60;1.23;;;28.00;35.90;;;;;;4930328;29;20786;-52
2021/11/26 04:30:03;;;;;;;2.30;0.80;;;28.00;35.90;;;;;;4930442;29;20204;-51
2021/11/26 04:32:36;;;;;;;3.40;1.17;;;28.00;36.10;;;;;;4928888;29;20206;-47
2021/11/26 04:35:07;;;;;;;2.50;1.20;;;28.00;35.90;;;;;;4930656;29;20283;-47
2021/11/26 04:37:41;;;;;;;3.65;1.27;;;28.10;35.80;;;;;;4914775;29;20232;-49
2021/11/26 04:40:14;;;;;;;2.97;1.00;;;28.00;35.60;;;;;;4914667;29;20200;-49
2021/11/26 04:42:46;;;;;;;2.42;1.15;;;28.00;35.60;;;;;;4931134;29;20657;-49
2021/11/26 04:45:18;;;;;;;3.97;1.20;;;28.10;35.60;;;;;;4929534;29;20269;-48
2021/11/26 04:47:48;;;;;;;2.42;0.90;;;28.10;35.60;;;;;;4928631;29;20290;-51
2021/11/26 04:50:20;;;;;;;2.90;1.05;;;28.10;35.60;;;;;;4926638;29;20204;-47
2021/11/26 04:52:53;;;;;;;3.40;1.25;;;28.10;35.60;;;;;;4916054;29;20199;-48
2021/11/26 04:55:26;;;;;;;3.85;1.10;;;28.10;35.60;;;;;;4914345;29;20220;-51
2021/11/26 04:57:57;;;;;;;3.92;1.20;;;28.10;35.60;;;;;;4930474;29;20287;-49
2021/11/26 05:00:28;;;;;;;5.78;1.50;;;28.10;35.60;;;;;;4928708;29;20204;-49
2021/11/26 05:03:00;;;;;;;5.57;1.73;;;28.10;35.30;;;;;;4929821;29;20258;-50
2021/11/26 05:05:31;;;;;;;7.53;1.75;;;28.10;35.30;;;;;;4929568;29;20219;-51
2021/11/26 05:08:05;;;;;;;5.90;2.20;;;28.10;35.60;;;;;;4929787;29;20263;-50
2021/11/26 05:10:35;;;;;;;12.27;2.95;;;28.10;36.30;;;;;;4929683;29;20911;-52
2021/11/26 05:13:08;;;;;;;10.98;2.28;;;28.10;36.10;;;;;;4933812;28;20203;-49
2021/11/26 05:15:39;;;;;;;7.03;1.80;;;28.10;36.30;;;;;;4934157;29;20266;-49
2021/11/26 05:18:10;;;;;;;5.50;1.65;;;28.20;36.40;;;;;;4933236;29;20223;-50
2021/11/26 05:20:41;;;;;;;10.13;2.25;;;28.20;36.60;;;;;;4931371;29;20416;-48
2021/11/26 05:23:14;;;;;;;4.50;1.67;;;28.20;36.60;;;;;;4932809;29;20218;-47
2021/11/26 05:25:44;;;;;;;5.15;1.35;;;28.20;36.40;;;;;;4933272;29;20310;-48
2021/11/26 05:28:16;;;;;;;9.70;2.00;;;28.20;36.20;;;;;;4933628;29;20223;-51
2021/11/26 05:30:47;;;;;;;7.85;1.98;;;28.20;36.00;;;;;;4932504;29;20218;-47
2021/11/26 05:33:17;;;;;;;6.25;2.03;;;28.20;35.80;;;;;;4933260;29;20215;-47
2021/11/26 05:35:48;;;;;;;6.22;1.60;;;28.20;35.70;;;;;;4930347;29;20630;-48
2021/11/26 05:38:21;;;;;;;7.28;2.00;;;28.20;35.60;;;;;;4932039;29;20719;-51
2021/11/26 05:40:52;;;;;;;4.00;1.45;;;28.20;35.40;;;;;;4931465;29;20231;-50
2021/11/26 05:43:23;;;;;;;6.90;2.00;;;28.10;35.20;;;;;;4933044;29;20200;-49
2021/11/26 05:45:53;;;;;;;6.82;2.10;;;28.20;35.30;;;;;;4918913;29;20219;-53
2021/11/26 05:48:24;;;;;;;5.20;1.88;;;28.10;35.20;;;;;;4933161;29;20228;-50
2021/11/26 05:50:55;;;;;;;8.02;2.28;;;28.10;35.10;;;;;;4928624;29;20656;-50
2021/11/26 05:53:28;;;;;;;3.47;1.73;;;28.10;35.20;;;;;;4932344;29;20575;-49
2021/11/26 05:56:00;;;;;;;2.80;1.55;;;28.10;35.10;;;;;;4927284;29;20216;-50
2021/11/26 05:58:33;;;;;;;4.97;1.70;;;28.00;35.10;;;;;;4922896;29;20211;-47
2021/11/26 06:01:03;;;;;;;6.35;1.70;;;28.00;35.10;;;;;;4921815;29;20744;-48
2021/11/26 06:03:34;;;;;;;6.00;1.90;;;28.00;35.10;;;;;;4933867;29;20218;-48
2021/11/26 06:06:05;;;;;;;5.40;2.00;;;28.00;35.10;;;;;;4926711;29;20618;-49
2021/11/26 06:08:38;;;;;;;4.03;1.80;;;28.00;35.10;;;;;;4920127;29;20255;-50
2021/11/26 06:11:09;;;;;;;2.78;1.70;;;28.00;35.20;;;;;;4928542;29;20214;-47
2021/11/26 06:13:41;;;;;;;4.93;2.25;;;27.90;35.10;;;;;;4931210;29;20290;-48
2021/11/26 06:16:12;;;;;;;5.03;1.92;;;27.90;35.10;;;;;;4931351;29;20220;-48
2021/11/26 06:18:42;;;;;;;5.32;1.92;;;27.90;35.10;;;;;;4931977;29;20234;-47
2021/11/26 06:21:13;;;;;;;4.55;1.75;;;27.90;35.00;;;;;;4930703;28;20206;-50
2021/11/26 06:23:46;;;;;;;2.40;1.45;;;27.90;34.90;;;;;;4917750;29;20204;-51
2021/11/26 06:26:17;;;;;;;3.85;1.80;;;27.80;34.80;;;;;;4921055;29;20724;-50
2021/11/26 06:28:47;;;;;;;3.03;1.60;;;27.80;34.70;;;;;;4926973;29;20746;-49
2021/11/26 06:31:18;;;;;;;4.60;1.73;;;27.80;34.60;;;;;;4930617;29;20204;-49
2021/11/26 06:33:49;;;;;;;3.95;1.50;;;27.80;34.60;;;;;;4931928;29;20235;-48
2021/11/26 06:36:20;;;;;;;16.98;2.58;;;27.70;34.40;;;;;;4923082;29;20229;-48
2021/11/26 06:38:52;;;;;;;13.45;1.95;;;27.60;34.10;;;;;;4932101;29;20284;-47
2021/11/26 06:41:23;;;;;;;12.80;2.30;;;27.60;33.90;;;;;;4931651;29;20698;-48
2021/11/26 06:43:54;;;;;;;5.32;1.77;;;27.60;33.90;;;;;;4931592;29;20282;-47
2021/11/26 06:46:25;;;;;;;6.13;1.73;;;27.50;33.90;;;;;;4924539;29;20236;-46
2021/11/26 06:48:56;;;;;;;4.93;1.70;;;27.50;34.10;;;;;;4922611;29;20914;-49
2021/11/26 06:51:27;;;;;;;5.18;1.50;;;27.50;34.10;;;;;;4931323;29;20196;-51
2021/11/26 06:53:59;;;;;;;5.25;1.52;;;27.40;34.10;;;;;;4916210;29;20206;-54
2021/11/26 06:56:30;;;;;;;8.48;1.75;;;27.40;34.10;;;;;;4931521;29;20314;-49
2021/11/26 06:59:03;;;;;;;7.82;1.50;;;27.40;34.10;;;;;;4930467;29;20211;-50
2021/11/26 07:01:34;;;;;;;11.20;1.60;;;27.30;34.00;;;;;;4930861;29;20239;-50
2021/11/26 07:04:07;;;;;;;7.28;1.52;;;27.30;34.10;;;;;;4930334;29;20267;-47
2021/11/26 07:06:38;;;;;;;6.68;1.67;;;27.30;34.10;;;;;;4930044;29;20699;-48
2021/11/26 07:09:10;;;;;;;7.70;1.70;;;27.20;33.90;;;;;;4930250;29;20231;-49
2021/11/26 07:11:41;;;;;;;10.25;2.13;;;27.20;33.90;;;;;;4932237;29;20207;-48
2021/11/26 07:14:12;;;;;;;4.63;1.45;;;27.20;34.00;;;;;;4931028;29;20203;-48
2021/11/26 07:16:42;;;;;;;7.40;1.45;;;27.20;34.10;;;;;;4919717;29;20744;-49
2021/11/26 07:19:13;;;;;;;6.75;1.73;;;27.10;34.10;;;;;;4926260;29;20207;-47
2021/11/26 07:21:44;;;;;;;4.78;1.83;;;27.10;34.10;;;;;;4930317;29;20570;-50
2021/11/26 07:24:16;;;;;;;5.50;1.58;;;27.10;34.10;;;;;;4930012;29;20212;-46
2021/11/26 07:26:47;;;;;;;6.53;1.67;;;27.00;34.20;;;;;;4932902;29;20226;-46
2021/11/26 07:29:18;;;;;;;4.07;1.50;;;27.00;34.20;;;;;;4931733;29;20227;-47
2021/11/26 07:31:48;;;;;;;5.35;1.35;;;27.00;34.30;;;;;;4930998;29;20279;-47
2021/11/26 07:34:19;;;;;;;4.63;1.52;;;27.00;34.40;;;;;;4919958;29;20211;-49
2021/11/26 07:36:50;;;;;;;5.43;1.30;;;26.90;34.40;;;;;;4923849;29;20234;-50
2021/11/26 07:39:23;;;;;;;4.95;1.13;;;26.90;34.50;;;;;;4929459;29;20203;-48
2021/11/26 07:41:54;;;;;;;3.13;1.38;;;26.90;34.60;;;;;;4929602;29;20238;-49
2021/11/26 07:44:24;;;;;;;4.80;1.27;;;26.90;34.80;;;;;;4932080;29;20239;-49
2021/11/26 07:46:55;;;;;;;6.63;1.38;;;26.80;34.80;;;;;;4916713;29;20200;-50
2021/11/26 07:49:28;;;;;;;2.83;1.20;;;26.80;34.90;;;;;;4929845;29;20231;-48
2021/11/26 07:52:00;;;;;;;6.40;1.17;;;26.80;34.90;;;;;;4928803;29;20676;-48
2021/11/26 07:54:33;;;;;;;5.70;1.40;;;26.80;35.00;;;;;;4930318;29;20203;-46
2021/11/26 07:57:03;;;;;;;4.43;1.05;;;26.70;35.00;;;;;;4928115;29;20226;-51
2021/11/26 07:59:34;;;;;;;4.72;1.42;;;26.80;35.20;;;;;;4926313;29;20211;-47
2021/11/26 08:02:05;;;;;;;2.15;1.17;;;26.70;35.10;;;;;;4930937;29;20657;-49
2021/11/26 08:04:37;;;;;;;4.15;1.50;;;26.70;35.10;;;;;;4916952;29;20196;-49
2021/11/26 08:07:08;;;;;;;2.53;1.10;;;26.70;35.10;;;;;;4927124;29;20207;-50
2021/11/26 08:09:41;;;;;;;3.25;1.08;;;26.60;35.10;;;;;;4927989;29;20258;-51
2021/11/26 08:12:11;;;;;;;1.10;0.95;;;26.60;35.10;;;;;;4929919;29;20210;-51
2021/11/26 08:14:42;;;;;;;2.35;0.90;;;26.60;35.10;;;;;;4931070;29;20679;-49
2021/11/26 08:17:13;;;;;;;3.70;1.25;;;26.50;35.00;;;;;;4928245;29;20283;-52
2021/11/26 08:19:43;;;;;;;1.58;1.08;;;26.50;35.10;;;;;;4930992;29;20208;-51
2021/11/26 08:22:17;;;;;;;2.90;1.10;;;26.50;35.10;;;;;;4929298;29;20206;-48
2021/11/26 08:24:49;;;;;;;6.63;1.38;;;26.50;35.20;;;;;;4931022;29;20207;-51
2021/11/26 08:27:20;;;;;;;1.92;0.90;;;26.50;35.20;;;;;;4930444;29;20575;-49
2021/11/26 08:29:50;;;;;;;1.85;1.10;;;26.40;36.00;;;;;;4921687;29;20223;-51
2021/11/26 08:32:21;;;;;;;3.95;1.05;;;26.40;35.60;;;;;;4935484;28;20199;-52
2021/11/26 08:34:52;;;;;;;2.95;0.80;;;26.40;35.60;;;;;;4942212;28;20223;-55
2021/11/26 08:37:23;;;;;;;3.03;1.00;;;26.40;35.70;;;;;;4942170;29;20199;-53
2021/11/26 08:39:56;;;;;;;2.33;0.88;;;26.30;35.70;;;;;;4944880;28;20215;-53
2021/11/26 08:42:27;;;;;;;2.45;1.00;;;26.30;35.70;;;;;;4944840;28;20206;-49
2021/11/26 08:44:58;;;;;;;2.53;0.85;;;26.30;35.70;;;;;;4946884;29;20210;-50
2021/11/26 08:47:37;;;;;;;2.47;0.93;;;26.30;35.70;;;;;;4947669;28;20221;-49
2021/11/26 08:50:13;;;;;;;3.92;0.90;;;26.30;36.30;;;;;;4948287;29;20230;-48
2021/11/26 08:52:44;;;;;;;3.13;0.98;;;26.20;35.60;;;;;;4944504;28;20213;-49
2021/11/26 08:55:18;;;;;;;2.13;1.10;;;26.20;35.60;;;;;;4946807;28;20306;-49
2021/11/26 08:57:53;;;;;;;2.83;1.13;;;26.20;35.60;;;;;;4946142;29;20234;-50
2021/11/26 09:00:26;;;;;;;1.77;0.80;;;26.10;35.60;;;;;;4946596;28;20213;-49
2021/11/26 09:02:57;;;;;;;2.60;0.80;;;26.10;35.70;;;;;;4949200;28;20202;-49
2021/11/26 09:05:28;;;;;;;1.10;0.75;;;26.10;35.70;;;;;;4945561;29;20291;-49
2021/11/26 09:08:02;;;;;;;2.38;0.73;;;26.10;35.70;;;;;;4948533;28;20212;-51
2021/11/26 09:10:36;;;;;;;2.08;0.93;;;26.10;35.70;;;;;;4943897;29;20226;-53
2021/11/26 09:13:08;;;;;;;4.38;0.90;;;26.00;35.70;;;;;;4949248;29;20218;-50
2021/11/26 09:15:40;;;;;;;3.55;0.90;;;26.00;35.80;;;;;;4948083;29;21062;-51
2021/11/26 09:18:11;;;;;;;1.35;0.70;;;25.90;35.70;;;;;;4946151;29;20310;-50
2021/11/26 09:20:43;;;;;;;1.42;0.73;;;26.00;35.80;;;;;;4946013;29;20202;-52
2021/11/26 09:23:14;;;;;;;2.88;0.80;;;25.90;35.80;;;;;;4944395;28;20754;-49
2021/11/26 09:25:47;;;;;;;0.98;0.70;;;25.90;35.80;;;;;;4940702;29;20309;-50
2021/11/26 09:28:18;;;;;;;1.98;1.00;;;25.90;36.40;;;;;;4943876;28;20488;-51
2021/11/26 09:30:49;;;;;;;2.88;1.00;;;25.80;35.80;;;;;;4942641;29;20223;-49
2021/11/26 09:33:21;;;;;;;3.65;1.15;;;25.80;35.80;;;;;;4941887;28;20242;-49
2021/11/26 09:35:52;;;;;;;1.45;0.68;;;25.80;35.80;;;;;;4945649;29;20234;-53
2021/11/26 09:38:23;;;;;;;3.80;0.80;;;25.80;35.90;;;;;;4943834;29;20214;-52
2021/11/26 09:40:55;;;;;;;3.80;1.00;;;25.80;35.90;;;;;;4939324;28;20218;-51
2021/11/26 09:43:26;;;;;;;3.03;0.90;;;25.80;36.00;;;;;;4947478;29;20203;-51
2021/11/26 09:45:57;;;;;;;2.28;0.90;;;25.70;35.90;;;;;;4935052;28;20235;-49
2021/11/26 09:48:28;;;;;;;3.65;1.00;;;25.70;36.00;;;;;;4932735;29;20195;-48
2021/11/26 09:50:58;;;;;;;2.72;0.82;;;25.70;35.90;;;;;;4925427;29;20223;-47
2021/11/26 09:53:30;;;;;;;3.53;1.10;;;25.60;35.90;;;;;;4931218;29;20203;-46
2021/11/26 09:56:05;;;;;;;2.65;0.90;;;25.60;35.90;;;;;;4925123;29;20271;-51
2021/11/26 09:58:37;;;;;;;3.75;1.13;;;25.60;36.00;;;;;;4927805;28;20211;-48
2021/11/26 10:01:11;;;;;;;1.70;0.70;;;25.60;35.90;;;;;;4925726;29;20204;-47
2021/11/26 10:03:43;;;;;;;2.30;0.90;;;25.50;36.00;;;;;;4927584;29;20207;-48
2021/11/26 10:06:25;;;;;;;2.30;1.02;;;25.50;36.00;;;;;;4922658;29;20228;-51
2021/11/26 10:09:05;;;;;;;2.55;0.95;;;25.50;36.00;;;;;;4926148;29;20251;-46
2021/11/26 10:11:39;;;;;;;4.07;1.00;;;25.50;36.10;;;;;;4926557;29;20283;-47
2021/11/26 10:14:21;;;;;;;3.20;0.85;;;25.50;36.10;;;;;;4925517;29;20326;-47
2021/11/26 10:16:54;;;;;;;2.90;0.93;;;25.40;36.10;;;;;;4927709;29;20310;-51
2021/11/26 10:19:34;;;;;;;1.88;0.75;;;25.40;36.10;;;;;;4921199;29;20270;-46
2021/11/26 10:22:16;;;;;;;2.30;0.80;;;25.40;36.20;;;;;;4924542;29;20247;-48
2021/11/26 10:24:57;;;;;;;2.17;1.08;;;25.40;36.30;;;;;;4928848;29;20196;-50
2021/11/26 10:27:40;;;;;;;2.97;1.00;;;25.30;36.20;;;;;;4927737;29;20232;-49
2021/11/26 10:30:19;;;;;;;1.67;0.70;;;25.30;36.30;;;;;;4925003;29;20226;-46
2021/11/26 10:33:01;;;;;;;1.15;0.80;;;25.30;36.40;;;;;;4925795;29;20196;-48
2021/11/26 10:35:33;;;;;;;1.20;0.80;;;25.30;36.40;;;;;;4927993;29;20617;-46
2021/11/26 10:38:07;;;;;;;1.60;0.85;;;25.30;36.40;;;;;;4923362;29;20260;-48
2021/11/26 10:40:39;;;;;;;2.35;0.80;;;25.20;36.50;;;;;;4930792;29;20200;-46
2021/11/26 10:43:17;;;;;;;1.38;0.80;;;25.20;36.40;;;;;;4931205;29;20251;-47
2021/11/26 10:46:04;;;;;;;2.50;1.15;;;25.20;36.60;;;;;;4927021;29;20219;-48
2021/11/26 10:51:41;;;;;;;1.50;0.70;;;25.10;36.50;;;;;;4929091;29;20366;-47
2021/11/26 11:00:10;;;;;;;0.80;0.80;;;25.10;36.60;;;;;;4930992;28;20191;-47
2021/11/26 11:02:42;;;;;;;2.03;1.00;;;25.10;36.70;;;;;;4930314;29;20676;-48
2021/11/26 11:05:24;;;;;;;3.30;0.82;;;25.00;36.70;;;;;;4932872;29;20222;-46
2021/11/26 11:07:55;;;;;;;1.63;0.70;;;25.00;36.70;;;;;;4930829;29;20290;-45
2021/11/26 11:10:32;;;;;;;1.35;0.68;;;25.00;36.70;;;;;;4930239;29;20271;-46
2021/11/26 11:13:10;;;;;;;3.20;0.80;;;25.00;36.80;;;;;;4931438;29;20278;-47
2021/11/26 11:15:43;;;;;;;1.77;0.75;;;24.90;36.80;;;;;;4929204;29;20306;-47
2021/11/26 11:18:14;;;;;;;2.08;0.77;;;25.00;36.80;;;;;;4932571;29;20199;-47
2021/11/26 11:20:46;;;;;;;1.20;1.10;;;24.90;36.90;;;;;;4915777;29;20211;-46
2021/11/26 11:23:16;;;;;;;1.52;0.70;;;24.90;36.90;;;;;;4930672;29;20203;-50
2021/11/26 11:25:48;;;;;;;1.02;0.70;;;24.90;36.90;;;;;;4931414;29;20234;-47
2021/11/26 11:28:19;;;;;;;1.08;0.70;;;24.90;37.00;;;;;;4932253;29;20200;-46
2021/11/26 11:30:51;;;;;;;2.25;0.70;;;24.90;37.00;;;;;;4928704;29;20570;-49
2021/11/26 11:33:23;;;;;;;2.80;1.00;;;24.80;36.90;;;;;;4930990;29;20199;-48
2021/11/26 11:35:55;;;;;;;2.53;0.90;;;24.80;37.10;;;;;;4931549;29;20234;-47
2021/11/26 11:38:25;;;;;;;3.78;0.90;;;24.80;37.10;;;;;;4928587;29;20203;-48
2021/11/26 11:41:03;;;;;;;2.78;1.10;;;24.80;37.10;;;;;;4928863;29;20684;-50
2021/11/26 11:43:43;;;;;;;0.90;0.60;;;24.70;37.10;;;;;;4919314;29;20207;-48
2021/11/26 11:46:17;;;;;;;3.47;1.10;;;24.70;37.10;;;;;;4929056;29;20291;-50
2021/11/26 11:48:51;;;;;;;2.83;1.10;;;24.70;37.10;;;;;;4931089;29;20250;-51
2021/11/26 11:51:26;;;;;;;1.77;1.10;;;24.70;37.10;;;;;;4931009;29;20234;-48
2021/11/26 11:54:14;;;;;;;1.65;1.02;;;24.70;37.20;;;;;;4930210;29;20568;-48
2021/11/26 11:56:47;;;;;;;1.10;0.73;;;24.70;37.20;;;;;;4930436;29;20755;-46
2021/11/26 11:59:30;;;;;;;3.28;1.08;;;24.70;37.20;;;;;;4940333;29;20199;-46
2021/11/26 12:02:04;;;;;;;2.60;1.15;;;24.60;37.20;;;;;;4929364;29;20210;-46
2021/11/26 12:04:41;;;;;;;2.55;1.00;;;24.70;37.30;;;;;;4930063;29;20203;-50
2021/11/26 12:07:12;;;;;;;3.35;1.50;;;24.60;37.30;;;;;;4927972;29;20202;-47
2021/11/26 12:09:42;;;;;;;1.83;1.00;;;24.70;37.30;;;;;;4929965;29;20223;-47
2021/11/26 12:12:16;;;;;;;2.40;1.02;;;24.60;37.30;;;;;;4930292;29;20196;-46
2021/11/26 12:14:51;;;;;;;1.55;0.90;;;24.60;37.30;;;;;;4931500;29;20779;-50
2021/11/26 12:17:33;;;;;;;1.65;1.02;;;24.60;37.40;;;;;;4928639;29;20198;-48
2021/11/26 12:20:08;;;;;;;1.65;1.05;;;24.50;37.30;;;;;;4930955;29;20203;-46
2021/11/26 12:22:44;;;;;;;1.60;1.02;;;24.50;37.30;;;;;;4935049;29;20234;-46
2021/11/26 12:25:33;;;;;;;1.75;1.10;;;24.50;37.40;;;;;;4931036;29;20574;-50
2021/11/26 12:28:06;;;;;;;1.65;1.20;;;24.50;37.40;;;;;;4923598;29;20196;-47
2021/11/26 12:30:40;;;;;;;3.30;1.00;;;24.50;38.10;;;;;;4935393;29;20234;-48
2021/11/26 12:33:23;;;;;;;1.73;0.98;;;24.50;37.50;;;;;;4933701;29;20235;-48
2021/11/26 12:36:02;;;;;;;1.80;1.30;;;24.50;37.60;;;;;;4933251;29;20219;-46
2021/11/26 12:38:42;;;;;;;1.48;1.00;;;24.40;37.50;;;;;;4934925;29;20202;-48
2021/11/26 12:41:14;;;;;;;1.70;1.23;;;24.40;37.60;;;;;;4933011;29;20195;-49
2021/11/26 12:43:47;;;;;;;1.27;1.00;;;24.40;37.50;;;;;;4923927;29;20196;-47
2021/11/26 12:46:26;;;;;;;2.40;1.00;;;24.40;37.60;;;;;;4933950;29;20712;-47
2021/11/26 12:49:26;;;;;;;1.73;1.20;;;24.40;37.60;;;;;;4932918;29;20196;-46
2021/11/26 12:51:57;;;;;;;1.30;1.20;;;24.40;37.70;;;;;;4932127;29;20263;-46
2021/11/26 12:54:29;;;;;;;2.15;1.00;;;24.40;37.70;;;;;;4933790;29;20204;-49
2021/11/26 12:57:02;;;;;;;2.67;1.40;;;24.40;37.70;;;;;;4934579;29;20215;-49
2021/11/26 12:59:35;;;;;;;2.17;1.10;;;24.30;37.70;;;;;;4936865;29;20210;-49
2021/11/26 13:02:08;;;;;;;1.60;0.98;;;24.30;37.80;;;;;;4933179;29;20196;-47
2021/11/26 13:04:49;;;;;;;2.28;1.10;;;24.30;37.80;;;;;;4927414;29;20211;-47
2021/11/26 13:07:22;;;;;;;1.80;1.05;;;24.30;37.90;;;;;;4926638;29;20286;-49
2021/11/26 13:09:54;;;;;;;1.00;0.85;;;24.30;37.90;;;;;;4933404;29;20203;-49
2021/11/26 13:12:31;;;;;;;2.20;1.05;;;24.30;37.90;;;;;;4933292;29;20204;-46
2021/11/26 13:15:03;;;;;;;1.50;1.17;;;24.30;38.00;;;;;;4933230;29;20203;-48
2021/11/26 13:17:39;;;;;;;2.55;0.88;;;24.20;38.00;;;;;;4933374;29;20207;-48
2021/11/26 13:20:15;;;;;;;1.13;1.00;;;24.20;38.00;;;;;;4932140;29;20223;-49
2021/11/26 13:22:52;;;;;;;1.20;0.90;;;24.20;38.10;;;;;;4934288;29;20671;-51